sensor_id;sensor_type;location;lat;lon;timestamp;P1;durP1;ratioP1;P2;durP2;ratioP2
37203;SDS011;23098;48.054;10.636;2022-07-23T00:00:53;13.68;;;10.10;;
37203;SDS011;23098;48.054;10.636;2022-07-23T00:03:19;13.25;;;10.10;;
37203;SDS011;23098;48.054;10.636;2022-07-23T00:05:44;12.02;;;9.95;;
37203;SDS011;23098;48.054;10.636;2022-07-23T00:08:10;10.63;;;8.38;;
37203;SDS011;23098;48.054;10.636;2022-07-23T00:10:36;11.48;;;8.68;;
37203;SDS011;23098;48.054;10.636;2022-07-23T00:13:01;10.85;;;8.02;;
37203;SDS011;23098;48.054;10.636;2022-07-23T00:15:27;11.80;;;7.82;;
37203;SDS011;23098;48.054;10.636;2022-07-23T00:17:53;10.05;;;6.65;;
37203;SDS011;23098;48.054;10.636;2022-07-23T00:20:18;9.60;;;7.13;;
37203;SDS011;23098;48.054;10.636;2022-07-23T00:22:48;8.80;;;6.38;;
37203;SDS011;23098;48.054;10.636;2022-07-23T00:25:15;14.00;;;6.90;;
37203;SDS011;23098;48.054;10.636;2022-07-23T00:27:40;7.82;;;5.55;;
37203;SDS011;23098;48.054;10.636;2022-07-23T00:30:06;8.93;;;6.07;;
37203;SDS011;23098;48.054;10.636;2022-07-23T00:32:35;17.27;;;8.43;;
37203;SDS011;23098;48.054;10.636;2022-07-23T00:35:13;19.98;;;9.50;;
37203;SDS011;23098;48.054;10.636;2022-07-23T00:37:39;18.67;;;8.88;;
37203;SDS011;23098;48.054;10.636;2022-07-23T00:40:05;17.98;;;9.73;;
37203;SDS011;23098;48.054;10.636;2022-07-23T00:42:31;19.60;;;10.65;;
37203;SDS011;23098;48.054;10.636;2022-07-23T00:44:57;20.40;;;10.68;;
37203;SDS011;23098;48.054;10.636;2022-07-23T00:47:23;21.38;;;12.18;;
37203;SDS011;23098;48.054;10.636;2022-07-23T00:49:50;20.80;;;13.07;;
37203;SDS011;23098;48.054;10.636;2022-07-23T00:52:15;24.80;;;14.25;;
37203;SDS011;23098;48.054;10.636;2022-07-23T00:54:41;24.52;;;13.90;;
37203;SDS011;23098;48.054;10.636;2022-07-23T00:57:06;22.48;;;13.05;;
37203;SDS011;23098;48.054;10.636;2022-07-23T00:59:33;26.80;;;13.52;;
37203;SDS011;23098;48.054;10.636;2022-07-23T01:01:58;24.75;;;13.38;;
37203;SDS011;23098;48.054;10.636;2022-07-23T01:04:24;22.65;;;14.15;;
37203;SDS011;23098;48.054;10.636;2022-07-23T01:06:50;20.92;;;13.13;;
37203;SDS011;23098;48.054;10.636;2022-07-23T01:09:15;18.52;;;11.57;;
37203;SDS011;23098;48.054;10.636;2022-07-23T01:11:41;19.55;;;11.65;;
37203;SDS011;23098;48.054;10.636;2022-07-23T01:14:11;18.85;;;12.25;;
37203;SDS011;23098;48.054;10.636;2022-07-23T01:16:38;19.33;;;12.80;;
37203;SDS011;23098;48.054;10.636;2022-07-23T01:19:04;18.13;;;11.93;;
37203;SDS011;23098;48.054;10.636;2022-07-23T01:21:31;18.75;;;12.60;;
37203;SDS011;23098;48.054;10.636;2022-07-23T01:24:01;21.05;;;12.52;;
37203;SDS011;23098;48.054;10.636;2022-07-23T01:26:26;14.77;;;11.88;;
37203;SDS011;23098;48.054;10.636;2022-07-23T01:28:52;19.65;;;11.75;;
37203;SDS011;23098;48.054;10.636;2022-07-23T01:31:17;17.38;;;11.93;;
37203;SDS011;23098;48.054;10.636;2022-07-23T01:33:44;19.67;;;11.57;;
37203;SDS011;23098;48.054;10.636;2022-07-23T01:36:09;18.83;;;11.38;;
37203;SDS011;23098;48.054;10.636;2022-07-23T01:38:35;14.85;;;10.82;;
37203;SDS011;23098;48.054;10.636;2022-07-23T01:41:00;15.18;;;11.60;;
37203;SDS011;23098;48.054;10.636;2022-07-23T01:43:26;14.82;;;11.90;;
37203;SDS011;23098;48.054;10.636;2022-07-23T01:45:51;18.05;;;12.23;;
37203;SDS011;23098;48.054;10.636;2022-07-23T01:48:17;16.92;;;12.02;;
37203;SDS011;23098;48.054;10.636;2022-07-23T01:50:42;14.65;;;12.02;;
37203;SDS011;23098;48.054;10.636;2022-07-23T01:53:08;16.20;;;11.77;;
37203;SDS011;23098;48.054;10.636;2022-07-23T01:55:34;15.18;;;12.40;;
37203;SDS011;23098;48.054;10.636;2022-07-23T01:57:59;18.58;;;11.85;;
37203;SDS011;23098;48.054;10.636;2022-07-23T02:00:25;19.00;;;11.95;;
37203;SDS011;23098;48.054;10.636;2022-07-23T02:02:50;15.23;;;12.05;;
37203;SDS011;23098;48.054;10.636;2022-07-23T02:05:16;17.52;;;12.25;;
37203;SDS011;23098;48.054;10.636;2022-07-23T02:07:41;16.38;;;11.90;;
37203;SDS011;23098;48.054;10.636;2022-07-23T02:10:07;17.35;;;12.52;;
37203;SDS011;23098;48.054;10.636;2022-07-23T02:12:33;17.55;;;11.90;;
37203;SDS011;23098;48.054;10.636;2022-07-23T02:14:59;14.73;;;11.60;;
37203;SDS011;23098;48.054;10.636;2022-07-23T02:17:24;14.13;;;11.15;;
37203;SDS011;23098;48.054;10.636;2022-07-23T02:19:50;16.77;;;12.20;;
37203;SDS011;23098;48.054;10.636;2022-07-23T02:22:15;14.48;;;11.65;;
37203;SDS011;23098;48.054;10.636;2022-07-23T02:24:41;19.10;;;12.40;;
37203;SDS011;23098;48.054;10.636;2022-07-23T02:27:06;18.35;;;12.32;;
37203;SDS011;23098;48.054;10.636;2022-07-23T02:29:32;15.48;;;12.13;;
37203;SDS011;23098;48.054;10.636;2022-07-23T02:31:57;15.35;;;11.55;;
37203;SDS011;23098;48.054;10.636;2022-07-23T02:34:23;16.40;;;11.13;;
37203;SDS011;23098;48.054;10.636;2022-07-23T02:36:48;16.63;;;10.85;;
37203;SDS011;23098;48.054;10.636;2022-07-23T02:39:14;14.35;;;10.13;;
37203;SDS011;23098;48.054;10.636;2022-07-23T02:41:39;13.95;;;10.45;;
37203;SDS011;23098;48.054;10.636;2022-07-23T02:44:05;13.85;;;10.50;;
37203;SDS011;23098;48.054;10.636;2022-07-23T02:46:31;14.68;;;11.70;;
37203;SDS011;23098;48.054;10.636;2022-07-23T02:48:56;14.77;;;11.35;;
37203;SDS011;23098;48.054;10.636;2022-07-23T02:51:22;12.45;;;10.80;;
37203;SDS011;23098;48.054;10.636;2022-07-23T02:53:47;11.57;;;10.32;;
37203;SDS011;23098;48.054;10.636;2022-07-23T02:56:13;16.95;;;10.40;;
37203;SDS011;23098;48.054;10.636;2022-07-23T02:58:38;13.70;;;10.23;;
37203;SDS011;23098;48.054;10.636;2022-07-23T03:01:04;12.55;;;10.52;;
37203;SDS011;23098;48.054;10.636;2022-07-23T03:03:29;11.95;;;10.30;;
37203;SDS011;23098;48.054;10.636;2022-07-23T03:05:55;15.60;;;10.30;;
37203;SDS011;23098;48.054;10.636;2022-07-23T03:08:23;15.70;;;10.77;;
37203;SDS011;23098;48.054;10.636;2022-07-23T03:10:48;17.52;;;11.32;;
37203;SDS011;23098;48.054;10.636;2022-07-23T03:13:14;14.68;;;11.50;;
37203;SDS011;23098;48.054;10.636;2022-07-23T03:15:39;16.50;;;12.43;;
37203;SDS011;23098;48.054;10.636;2022-07-23T03:18:05;16.48;;;12.50;;
37203;SDS011;23098;48.054;10.636;2022-07-23T03:20:30;13.32;;;11.18;;
37203;SDS011;23098;48.054;10.636;2022-07-23T03:22:56;15.82;;;11.68;;
37203;SDS011;23098;48.054;10.636;2022-07-23T03:25:21;19.90;;;10.85;;
37203;SDS011;23098;48.054;10.636;2022-07-23T03:27:47;12.85;;;10.88;;
37203;SDS011;23098;48.054;10.636;2022-07-23T03:30:13;13.57;;;10.48;;
37203;SDS011;23098;48.054;10.636;2022-07-23T03:32:38;16.05;;;10.75;;
37203;SDS011;23098;48.054;10.636;2022-07-23T03:35:04;17.55;;;12.18;;
37203;SDS011;23098;48.054;10.636;2022-07-23T03:37:30;15.73;;;12.32;;
37203;SDS011;23098;48.054;10.636;2022-07-23T03:39:55;15.55;;;12.45;;
37203;SDS011;23098;48.054;10.636;2022-07-23T03:42:21;16.00;;;12.60;;
37203;SDS011;23098;48.054;10.636;2022-07-23T03:44:46;12.82;;;11.02;;
37203;SDS011;23098;48.054;10.636;2022-07-23T03:47:12;15.40;;;11.48;;
37203;SDS011;23098;48.054;10.636;2022-07-23T03:49:37;14.45;;;10.88;;
37203;SDS011;23098;48.054;10.636;2022-07-23T03:52:03;13.80;;;10.15;;
37203;SDS011;23098;48.054;10.636;2022-07-23T03:54:29;12.93;;;10.82;;
37203;SDS011;23098;48.054;10.636;2022-07-23T03:56:54;14.68;;;11.00;;
37203;SDS011;23098;48.054;10.636;2022-07-23T03:59:20;13.32;;;10.65;;
37203;SDS011;23098;48.054;10.636;2022-07-23T04:01:45;13.15;;;11.43;;
37203;SDS011;23098;48.054;10.636;2022-07-23T04:04:11;14.48;;;10.95;;
37203;SDS011;23098;48.054;10.636;2022-07-23T04:06:36;15.38;;;10.77;;
37203;SDS011;23098;48.054;10.636;2022-07-23T04:09:02;13.00;;;10.73;;
37203;SDS011;23098;48.054;10.636;2022-07-23T04:11:29;13.07;;;10.90;;
37203;SDS011;23098;48.054;10.636;2022-07-23T04:13:55;14.02;;;11.52;;
37203;SDS011;23098;48.054;10.636;2022-07-23T04:16:21;13.68;;;10.68;;
37203;SDS011;23098;48.054;10.636;2022-07-23T04:18:46;15.10;;;9.55;;
37203;SDS011;23098;48.054;10.636;2022-07-23T04:21:12;12.73;;;10.50;;
37203;SDS011;23098;48.054;10.636;2022-07-23T04:23:37;12.85;;;10.27;;
37203;SDS011;23098;48.054;10.636;2022-07-23T04:26:03;14.02;;;9.68;;
37203;SDS011;23098;48.054;10.636;2022-07-23T04:28:28;12.35;;;9.65;;
37203;SDS011;23098;48.054;10.636;2022-07-23T04:30:55;14.23;;;10.35;;
37203;SDS011;23098;48.054;10.636;2022-07-23T04:33:22;11.82;;;10.18;;
37203;SDS011;23098;48.054;10.636;2022-07-23T04:35:48;12.13;;;9.25;;
37203;SDS011;23098;48.054;10.636;2022-07-23T04:38:13;12.38;;;9.65;;
37203;SDS011;23098;48.054;10.636;2022-07-23T04:40:39;14.02;;;10.10;;
37203;SDS011;23098;48.054;10.636;2022-07-23T04:43:04;11.25;;;9.02;;
37203;SDS011;23098;48.054;10.636;2022-07-23T04:45:30;12.88;;;9.85;;
37203;SDS011;23098;48.054;10.636;2022-07-23T04:47:55;10.45;;;8.48;;
37203;SDS011;23098;48.054;10.636;2022-07-23T04:50:22;11.85;;;9.40;;
37203;SDS011;23098;48.054;10.636;2022-07-23T04:52:48;10.93;;;9.07;;
37203;SDS011;23098;48.054;10.636;2022-07-23T04:55:14;11.95;;;8.88;;
37203;SDS011;23098;48.054;10.636;2022-07-23T04:57:40;13.18;;;9.15;;
37203;SDS011;23098;48.054;10.636;2022-07-23T05:00:06;12.48;;;9.23;;
37203;SDS011;23098;48.054;10.636;2022-07-23T05:02:32;12.57;;;10.30;;
37203;SDS011;23098;48.054;10.636;2022-07-23T05:04:57;10.55;;;9.40;;
37203;SDS011;23098;48.054;10.636;2022-07-23T05:07:23;16.83;;;10.40;;
37203;SDS011;23098;48.054;10.636;2022-07-23T05:09:50;11.07;;;8.45;;
37203;SDS011;23098;48.054;10.636;2022-07-23T05:12:16;11.48;;;8.40;;
37203;SDS011;23098;48.054;10.636;2022-07-23T05:14:41;11.38;;;9.10;;
37203;SDS011;23098;48.054;10.636;2022-07-23T05:17:07;9.25;;;7.72;;
37203;SDS011;23098;48.054;10.636;2022-07-23T05:19:33;8.90;;;7.82;;
37203;SDS011;23098;48.054;10.636;2022-07-23T05:21:59;9.90;;;8.02;;
37203;SDS011;23098;48.054;10.636;2022-07-23T05:24:24;14.55;;;9.20;;
37203;SDS011;23098;48.054;10.636;2022-07-23T05:26:50;9.82;;;8.25;;
37203;SDS011;23098;48.054;10.636;2022-07-23T05:29:15;9.57;;;7.68;;
37203;SDS011;23098;48.054;10.636;2022-07-23T05:31:41;13.57;;;9.23;;
37203;SDS011;23098;48.054;10.636;2022-07-23T05:34:06;14.38;;;9.60;;
37203;SDS011;23098;48.054;10.636;2022-07-23T05:36:32;11.55;;;9.00;;
37203;SDS011;23098;48.054;10.636;2022-07-23T05:38:58;13.38;;;9.13;;
37203;SDS011;23098;48.054;10.636;2022-07-23T05:41:24;12.77;;;9.77;;
37203;SDS011;23098;48.054;10.636;2022-07-23T05:43:50;9.75;;;8.68;;
37203;SDS011;23098;48.054;10.636;2022-07-23T05:46:15;9.70;;;8.70;;
37203;SDS011;23098;48.054;10.636;2022-07-23T05:48:41;11.40;;;8.77;;
37203;SDS011;23098;48.054;10.636;2022-07-23T05:51:07;12.75;;;8.73;;
37203;SDS011;23098;48.054;10.636;2022-07-23T05:53:33;11.10;;;8.68;;
37203;SDS011;23098;48.054;10.636;2022-07-23T05:56:00;12.68;;;8.80;;
37203;SDS011;23098;48.054;10.636;2022-07-23T05:58:26;13.27;;;9.30;;
37203;SDS011;23098;48.054;10.636;2022-07-23T06:00:51;10.68;;;8.20;;
37203;SDS011;23098;48.054;10.636;2022-07-23T06:03:17;10.98;;;9.07;;
37203;SDS011;23098;48.054;10.636;2022-07-23T06:05:43;13.20;;;9.27;;
37203;SDS011;23098;48.054;10.636;2022-07-23T06:08:08;10.98;;;8.63;;
37203;SDS011;23098;48.054;10.636;2022-07-23T06:13:21;13.52;;;9.70;;
37203;SDS011;23098;48.054;10.636;2022-07-23T06:15:47;10.68;;;9.45;;
37203;SDS011;23098;48.054;10.636;2022-07-23T06:18:15;13.60;;;10.68;;
37203;SDS011;23098;48.054;10.636;2022-07-23T06:20:41;14.02;;;10.55;;
37203;SDS011;23098;48.054;10.636;2022-07-23T06:23:06;12.80;;;9.95;;
37203;SDS011;23098;48.054;10.636;2022-07-23T06:25:32;13.85;;;10.20;;
37203;SDS011;23098;48.054;10.636;2022-07-23T06:27:57;13.07;;;10.38;;
37203;SDS011;23098;48.054;10.636;2022-07-23T06:30:23;13.48;;;10.65;;
37203;SDS011;23098;48.054;10.636;2022-07-23T06:32:49;11.88;;;10.05;;
37203;SDS011;23098;48.054;10.636;2022-07-23T06:35:15;12.32;;;10.15;;
37203;SDS011;23098;48.054;10.636;2022-07-23T06:37:41;15.70;;;11.48;;
37203;SDS011;23098;48.054;10.636;2022-07-23T06:40:06;17.67;;;12.68;;
37203;SDS011;23098;48.054;10.636;2022-07-23T06:42:32;18.23;;;13.48;;
37203;SDS011;23098;48.054;10.636;2022-07-23T06:44:58;17.90;;;12.90;;
37203;SDS011;23098;48.054;10.636;2022-07-23T06:47:23;15.13;;;12.18;;
37203;SDS011;23098;48.054;10.636;2022-07-23T06:49:49;14.85;;;11.75;;
37203;SDS011;23098;48.054;10.636;2022-07-23T06:52:14;14.50;;;10.70;;
37203;SDS011;23098;48.054;10.636;2022-07-23T06:54:40;10.98;;;9.77;;
37203;SDS011;23098;48.054;10.636;2022-07-23T06:57:07;11.05;;;9.65;;
37203;SDS011;23098;48.054;10.636;2022-07-23T06:59:32;13.23;;;10.05;;
37203;SDS011;23098;48.054;10.636;2022-07-23T07:02:01;13.63;;;9.15;;
37203;SDS011;23098;48.054;10.636;2022-07-23T07:04:29;14.07;;;10.10;;
37203;SDS011;23098;48.054;10.636;2022-07-23T07:06:54;11.27;;;9.15;;
37203;SDS011;23098;48.054;10.636;2022-07-23T07:09:20;15.70;;;12.27;;
37203;SDS011;23098;48.054;10.636;2022-07-23T07:11:47;15.18;;;11.82;;
37203;SDS011;23098;48.054;10.636;2022-07-23T07:14:12;17.20;;;11.90;;
37203;SDS011;23098;48.054;10.636;2022-07-23T07:16:38;15.25;;;11.20;;
37203;SDS011;23098;48.054;10.636;2022-07-23T07:19:03;15.32;;;12.70;;
37203;SDS011;23098;48.054;10.636;2022-07-23T07:21:28;13.23;;;11.05;;
37203;SDS011;23098;48.054;10.636;2022-07-23T07:23:54;14.80;;;11.30;;
37203;SDS011;23098;48.054;10.636;2022-07-23T07:26:20;14.27;;;11.05;;
37203;SDS011;23098;48.054;10.636;2022-07-23T07:28:45;11.23;;;10.02;;
37203;SDS011;23098;48.054;10.636;2022-07-23T07:31:12;13.35;;;9.90;;
37203;SDS011;23098;48.054;10.636;2022-07-23T07:33:38;12.25;;;10.30;;
37203;SDS011;23098;48.054;10.636;2022-07-23T07:36:03;11.52;;;10.32;;
37203;SDS011;23098;48.054;10.636;2022-07-23T07:38:29;13.23;;;9.75;;
37203;SDS011;23098;48.054;10.636;2022-07-23T07:40:55;10.55;;;9.55;;
37203;SDS011;23098;48.054;10.636;2022-07-23T07:43:20;10.43;;;9.32;;
37203;SDS011;23098;48.054;10.636;2022-07-23T07:45:46;11.18;;;9.20;;
37203;SDS011;23098;48.054;10.636;2022-07-23T07:48:11;12.93;;;10.30;;
37203;SDS011;23098;48.054;10.636;2022-07-23T07:50:37;11.52;;;9.63;;
37203;SDS011;23098;48.054;10.636;2022-07-23T07:53:03;11.73;;;9.93;;
37203;SDS011;23098;48.054;10.636;2022-07-23T07:55:28;10.25;;;9.10;;
37203;SDS011;23098;48.054;10.636;2022-07-23T07:57:54;10.40;;;9.15;;
37203;SDS011;23098;48.054;10.636;2022-07-23T08:00:19;8.95;;;8.05;;
37203;SDS011;23098;48.054;10.636;2022-07-23T08:02:46;12.25;;;9.02;;
37203;SDS011;23098;48.054;10.636;2022-07-23T08:05:13;10.18;;;8.73;;
37203;SDS011;23098;48.054;10.636;2022-07-23T08:07:39;12.52;;;9.35;;
37203;SDS011;23098;48.054;10.636;2022-07-23T08:10:09;10.00;;;9.00;;
37203;SDS011;23098;48.054;10.636;2022-07-23T08:12:45;10.35;;;8.48;;
37203;SDS011;23098;48.054;10.636;2022-07-23T08:15:16;10.20;;;9.00;;
37203;SDS011;23098;48.054;10.636;2022-07-23T08:17:43;11.75;;;9.05;;
37203;SDS011;23098;48.054;10.636;2022-07-23T08:20:09;9.40;;;8.13;;
37203;SDS011;23098;48.054;10.636;2022-07-23T08:25:25;8.85;;;8.05;;
37203;SDS011;23098;48.054;10.636;2022-07-23T08:27:56;9.55;;;7.53;;
37203;SDS011;23098;48.054;10.636;2022-07-23T08:30:22;8.38;;;7.45;;
37203;SDS011;23098;48.054;10.636;2022-07-23T08:32:53;7.55;;;6.75;;
37203;SDS011;23098;48.054;10.636;2022-07-23T08:35:43;8.75;;;6.80;;
37203;SDS011;23098;48.054;10.636;2022-07-23T08:38:17;7.63;;;6.82;;
37203;SDS011;23098;48.054;10.636;2022-07-23T08:40:44;8.57;;;7.00;;
37203;SDS011;23098;48.054;10.636;2022-07-23T08:43:12;9.18;;;6.18;;
37203;SDS011;23098;48.054;10.636;2022-07-23T08:45:40;10.23;;;6.60;;
37203;SDS011;23098;48.054;10.636;2022-07-23T08:48:11;8.45;;;6.38;;
37203;SDS011;23098;48.054;10.636;2022-07-23T08:50:41;7.00;;;5.50;;
37203;SDS011;23098;48.054;10.636;2022-07-23T08:53:11;6.85;;;6.05;;
37203;SDS011;23098;48.054;10.636;2022-07-23T08:55:38;6.90;;;5.30;;
37203;SDS011;23098;48.054;10.636;2022-07-23T08:58:04;5.63;;;5.03;;
37203;SDS011;23098;48.054;10.636;2022-07-23T09:00:30;9.55;;;4.75;;
37203;SDS011;23098;48.054;10.636;2022-07-23T09:02:57;6.25;;;4.50;;
37203;SDS011;23098;48.054;10.636;2022-07-23T09:05:22;6.82;;;4.93;;
37203;SDS011;23098;48.054;10.636;2022-07-23T09:08:11;6.50;;;5.00;;
37203;SDS011;23098;48.054;10.636;2022-07-23T09:10:45;5.72;;;4.85;;
37203;SDS011;23098;48.054;10.636;2022-07-23T09:15:57;5.80;;;4.88;;
37203;SDS011;23098;48.054;10.636;2022-07-23T09:18:36;5.85;;;4.95;;
37203;SDS011;23098;48.054;10.636;2022-07-23T09:23:37;5.78;;;4.72;;
37203;SDS011;23098;48.054;10.636;2022-07-23T09:26:44;5.97;;;5.00;;
37203;SDS011;23098;48.054;10.636;2022-07-23T09:29:16;5.28;;;4.78;;
37203;SDS011;23098;48.054;10.636;2022-07-23T09:34:23;5.97;;;4.45;;
37203;SDS011;23098;48.054;10.636;2022-07-23T09:36:54;6.07;;;5.30;;
37203;SDS011;23098;48.054;10.636;2022-07-23T09:41:49;7.20;;;5.13;;
37203;SDS011;23098;48.054;10.636;2022-07-23T09:44:16;6.78;;;5.10;;
37203;SDS011;23098;48.054;10.636;2022-07-23T09:46:44;6.75;;;5.53;;
37203;SDS011;23098;48.054;10.636;2022-07-23T09:49:15;9.05;;;5.85;;
37203;SDS011;23098;48.054;10.636;2022-07-23T09:51:46;9.23;;;5.15;;
37203;SDS011;23098;48.054;10.636;2022-07-23T09:54:24;7.72;;;5.22;;
37203;SDS011;23098;48.054;10.636;2022-07-23T09:56:52;6.32;;;5.15;;
37203;SDS011;23098;48.054;10.636;2022-07-23T09:59:18;6.93;;;4.95;;
37203;SDS011;23098;48.054;10.636;2022-07-23T10:01:49;5.93;;;5.28;;
37203;SDS011;23098;48.054;10.636;2022-07-23T10:04:16;6.40;;;5.40;;
37203;SDS011;23098;48.054;10.636;2022-07-23T10:06:43;7.32;;;5.40;;
37203;SDS011;23098;48.054;10.636;2022-07-23T10:09:11;6.72;;;5.60;;
37203;SDS011;23098;48.054;10.636;2022-07-23T10:11:37;7.93;;;5.40;;
37203;SDS011;23098;48.054;10.636;2022-07-23T10:14:04;6.50;;;5.38;;
37203;SDS011;23098;48.054;10.636;2022-07-23T10:16:31;7.20;;;5.20;;
37203;SDS011;23098;48.054;10.636;2022-07-23T10:18:56;5.82;;;5.22;;
37203;SDS011;23098;48.054;10.636;2022-07-23T10:21:41;6.55;;;5.25;;
37203;SDS011;23098;48.054;10.636;2022-07-23T10:24:18;7.47;;;5.85;;
37203;SDS011;23098;48.054;10.636;2022-07-23T10:27:01;7.03;;;5.35;;
37203;SDS011;23098;48.054;10.636;2022-07-23T10:35:15;6.80;;;5.88;;
37203;SDS011;23098;48.054;10.636;2022-07-23T10:37:42;8.52;;;6.05;;
37203;SDS011;23098;48.054;10.636;2022-07-23T10:40:19;6.35;;;5.75;;
37203;SDS011;23098;48.054;10.636;2022-07-23T10:42:48;6.95;;;5.88;;
37203;SDS011;23098;48.054;10.636;2022-07-23T10:47:49;8.18;;;5.97;;
37203;SDS011;23098;48.054;10.636;2022-07-23T10:50:26;9.80;;;5.90;;
37203;SDS011;23098;48.054;10.636;2022-07-23T10:57:56;7.00;;;5.65;;
37203;SDS011;23098;48.054;10.636;2022-07-23T11:00:23;7.65;;;5.70;;
37203;SDS011;23098;48.054;10.636;2022-07-23T11:02:54;7.10;;;5.43;;
37203;SDS011;23098;48.054;10.636;2022-07-23T11:05:22;7.15;;;5.53;;
37203;SDS011;23098;48.054;10.636;2022-07-23T11:10:33;7.13;;;5.95;;
37203;SDS011;23098;48.054;10.636;2022-07-23T11:32:06;7.80;;;5.68;;
37203;SDS011;23098;48.054;10.636;2022-07-23T11:34:43;6.47;;;5.70;;
37203;SDS011;23098;48.054;10.636;2022-07-23T11:37:12;6.15;;;5.55;;
37203;SDS011;23098;48.054;10.636;2022-07-23T11:39:55;6.38;;;5.78;;
37203;SDS011;23098;48.054;10.636;2022-07-23T11:42:22;8.60;;;5.63;;
37203;SDS011;23098;48.054;10.636;2022-07-23T11:44:49;7.22;;;5.60;;
37203;SDS011;23098;48.054;10.636;2022-07-23T11:47:15;6.30;;;4.97;;
37203;SDS011;23098;48.054;10.636;2022-07-23T11:49:52;6.55;;;4.95;;
37203;SDS011;23098;48.054;10.636;2022-07-23T11:52:19;6.10;;;5.30;;
37203;SDS011;23098;48.054;10.636;2022-07-23T11:54:57;7.43;;;5.68;;
37203;SDS011;23098;48.054;10.636;2022-07-23T11:57:31;6.43;;;5.28;;
37203;SDS011;23098;48.054;10.636;2022-07-23T12:00:04;6.60;;;5.18;;
37203;SDS011;23098;48.054;10.636;2022-07-23T12:02:30;6.82;;;4.90;;
37203;SDS011;23098;48.054;10.636;2022-07-23T12:04:56;5.88;;;5.13;;
37203;SDS011;23098;48.054;10.636;2022-07-23T12:07:22;6.10;;;5.10;;
37203;SDS011;23098;48.054;10.636;2022-07-23T12:09:49;6.13;;;4.80;;
37203;SDS011;23098;48.054;10.636;2022-07-23T12:12:15;5.95;;;4.93;;
37203;SDS011;23098;48.054;10.636;2022-07-23T12:14:47;6.65;;;4.72;;
37203;SDS011;23098;48.054;10.636;2022-07-23T12:17:14;5.78;;;4.43;;
37203;SDS011;23098;48.054;10.636;2022-07-23T12:19:40;6.07;;;4.97;;
37203;SDS011;23098;48.054;10.636;2022-07-23T12:22:06;6.18;;;5.18;;
37203;SDS011;23098;48.054;10.636;2022-07-23T12:24:52;5.28;;;4.78;;
37203;SDS011;23098;48.054;10.636;2022-07-23T12:27:20;6.05;;;4.93;;
37203;SDS011;23098;48.054;10.636;2022-07-23T12:29:46;5.53;;;4.90;;
37203;SDS011;23098;48.054;10.636;2022-07-23T12:32:22;5.38;;;4.72;;
37203;SDS011;23098;48.054;10.636;2022-07-23T12:35:06;5.72;;;4.72;;
37203;SDS011;23098;48.054;10.636;2022-07-23T12:37:34;5.82;;;5.22;;
37203;SDS011;23098;48.054;10.636;2022-07-23T12:42:48;6.70;;;4.80;;
37203;SDS011;23098;48.054;10.636;2022-07-23T12:45:16;6.43;;;5.82;;
37203;SDS011;23098;48.054;10.636;2022-07-23T12:48:50;7.53;;;5.55;;
37203;SDS011;23098;48.054;10.636;2022-07-23T12:53:18;6.07;;;5.50;;
37203;SDS011;23098;48.054;10.636;2022-07-23T12:56:03;6.70;;;6.00;;
37203;SDS011;23098;48.054;10.636;2022-07-23T12:58:52;9.13;;;6.20;;
37203;SDS011;23098;48.054;10.636;2022-07-23T13:03:55;6.95;;;5.97;;
37203;SDS011;23098;48.054;10.636;2022-07-23T13:06:20;8.82;;;6.32;;
37203;SDS011;23098;48.054;10.636;2022-07-23T13:08:46;7.40;;;6.32;;
37203;SDS011;23098;48.054;10.636;2022-07-23T13:11:12;6.95;;;5.90;;
37203;SDS011;23098;48.054;10.636;2022-07-23T13:13:38;9.10;;;6.18;;
37203;SDS011;23098;48.054;10.636;2022-07-23T13:16:03;9.77;;;6.38;;
37203;SDS011;23098;48.054;10.636;2022-07-23T13:18:29;6.65;;;5.97;;
37203;SDS011;23098;48.054;10.636;2022-07-23T13:20:55;7.65;;;6.68;;
37203;SDS011;23098;48.054;10.636;2022-07-23T13:23:22;8.13;;;6.70;;
37203;SDS011;23098;48.054;10.636;2022-07-23T13:25:48;8.02;;;6.82;;
37203;SDS011;23098;48.054;10.636;2022-07-23T13:28:14;8.18;;;6.60;;
37203;SDS011;23098;48.054;10.636;2022-07-23T13:30:41;7.85;;;6.78;;
37203;SDS011;23098;48.054;10.636;2022-07-23T13:33:07;7.85;;;6.57;;
37203;SDS011;23098;48.054;10.636;2022-07-23T13:35:33;8.85;;;6.93;;
37203;SDS011;23098;48.054;10.636;2022-07-23T13:38:00;8.10;;;7.18;;
37203;SDS011;23098;48.054;10.636;2022-07-23T13:40:26;7.13;;;6.43;;
37203;SDS011;23098;48.054;10.636;2022-07-23T13:42:52;9.40;;;6.78;;
37203;SDS011;23098;48.054;10.636;2022-07-23T13:45:18;8.35;;;6.97;;
37203;SDS011;23098;48.054;10.636;2022-07-23T13:47:44;7.72;;;6.93;;
37203;SDS011;23098;48.054;10.636;2022-07-23T13:50:10;7.90;;;6.85;;
37203;SDS011;23098;48.054;10.636;2022-07-23T13:52:36;7.65;;;6.50;;
37203;SDS011;23098;48.054;10.636;2022-07-23T13:55:02;10.13;;;6.90;;
37203;SDS011;23098;48.054;10.636;2022-07-23T13:57:29;7.00;;;6.20;;
37203;SDS011;23098;48.054;10.636;2022-07-23T13:59:56;7.28;;;6.22;;
37203;SDS011;23098;48.054;10.636;2022-07-23T14:02:21;7.90;;;6.90;;
37203;SDS011;23098;48.054;10.636;2022-07-23T14:04:47;8.93;;;6.63;;
37203;SDS011;23098;48.054;10.636;2022-07-23T14:07:13;7.45;;;6.65;;
37203;SDS011;23098;48.054;10.636;2022-07-23T14:09:39;8.32;;;6.93;;
37203;SDS011;23098;48.054;10.636;2022-07-23T14:12:05;10.05;;;6.65;;
37203;SDS011;23098;48.054;10.636;2022-07-23T14:14:31;9.02;;;6.72;;
37203;SDS011;23098;48.054;10.636;2022-07-23T14:16:57;7.13;;;6.43;;
37203;SDS011;23098;48.054;10.636;2022-07-23T14:19:23;7.72;;;6.93;;
37203;SDS011;23098;48.054;10.636;2022-07-23T14:21:48;7.97;;;6.60;;
37203;SDS011;23098;48.054;10.636;2022-07-23T14:24:14;8.13;;;6.82;;
37203;SDS011;23098;48.054;10.636;2022-07-23T14:26:40;8.43;;;6.47;;
37203;SDS011;23098;48.054;10.636;2022-07-23T14:29:06;7.38;;;6.55;;
37203;SDS011;23098;48.054;10.636;2022-07-23T14:31:32;8.18;;;6.65;;
37203;SDS011;23098;48.054;10.636;2022-07-23T14:33:57;8.63;;;6.47;;
37203;SDS011;23098;48.054;10.636;2022-07-23T14:36:23;7.68;;;6.97;;
37203;SDS011;23098;48.054;10.636;2022-07-23T14:38:50;7.90;;;6.60;;
37203;SDS011;23098;48.054;10.636;2022-07-23T14:41:15;7.55;;;6.75;;
37203;SDS011;23098;48.054;10.636;2022-07-23T14:43:41;7.93;;;7.13;;
37203;SDS011;23098;48.054;10.636;2022-07-23T14:46:07;7.40;;;6.50;;
37203;SDS011;23098;48.054;10.636;2022-07-23T14:48:33;8.30;;;7.50;;
37203;SDS011;23098;48.054;10.636;2022-07-23T14:50:58;7.97;;;7.18;;
37203;SDS011;23098;48.054;10.636;2022-07-23T14:53:24;8.50;;;7.70;;
37203;SDS011;23098;48.054;10.636;2022-07-23T14:55:49;9.30;;;7.63;;
37203;SDS011;23098;48.054;10.636;2022-07-23T14:58:15;7.85;;;6.72;;
37203;SDS011;23098;48.054;10.636;2022-07-23T15:00:40;8.15;;;7.35;;
37203;SDS011;23098;48.054;10.636;2022-07-23T15:03:06;8.43;;;7.47;;
37203;SDS011;23098;48.054;10.636;2022-07-23T15:05:31;8.18;;;7.05;;
37203;SDS011;23098;48.054;10.636;2022-07-23T15:07:57;7.78;;;7.00;;
37203;SDS011;23098;48.054;10.636;2022-07-23T15:10:23;9.05;;;7.50;;
37203;SDS011;23098;48.054;10.636;2022-07-23T15:12:50;9.48;;;7.65;;
37203;SDS011;23098;48.054;10.636;2022-07-23T15:15:16;10.90;;;7.10;;
37203;SDS011;23098;48.054;10.636;2022-07-23T15:17:42;8.20;;;6.68;;
37203;SDS011;23098;48.054;10.636;2022-07-23T15:20:08;9.45;;;7.68;;
37203;SDS011;23098;48.054;10.636;2022-07-23T15:22:34;8.43;;;7.53;;